Time;durP1;ratioP1;P1;durP2;ratioP2;P2;SDS_P1;SDS_P2;PMS_P1;PMS_P2;Temp;Humidity;BMP_temperature;BMP_pressure;BME280_temperature;BME280_humidity;BME280_pressure;Samples;Min_cycle;Max_cycle;Signal;HPM_P1;HPM_P2
2022/08/22 00:00:42;;;;;;;;;;;;;;;22.12;29.79;97123.06;4836157;29;1099;-78
2022/08/22 00:03:08;;;;;;;;;;;;;;;22.47;29.35;97117.13;4860896;29;937;-78
2022/08/22 00:05:41;;;;;;;;;;;;;;;22.42;29.64;97120.59;4860983;29;1899;-78
2022/08/22 00:08:08;;;;;;;;;;;;;;;22.34;29.57;97115.25;4842677;29;1027;-78
2022/08/22 00:10:41;;;;;;;;;;;;;;;22.40;29.77;97123.91;4842359;29;989;-78
2022/08/22 00:13:08;;;;;;;;;;;;;;;22.25;29.74;97118.06;4842088;29;1699;-78
2022/08/22 00:15:36;;;;;;;;;;;;;;;22.29;29.74;97127.19;4830108;29;1026;-78
2022/08/22 00:18:06;;;;;;;;;;;;;;;22.44;29.69;97101.06;4798792;29;987;-77
2022/08/22 00:20:31;;;;;;;;;;;;;;;22.50;29.51;97104.84;4824685;29;1233;-77
2022/08/22 00:23:10;;;;;;;;;;;;;;;22.71;29.19;97108.78;4809540;29;984;-77
2022/08/22 00:25:41;;;;;;;;;;;;;;;22.60;29.01;97104.38;4808616;29;1967;-78
2022/08/22 00:28:38;;;;;;;;;;;;;;;22.02;30.11;97112.94;4791016;30;1348;-77
2022/08/22 00:31:07;;;;;;;;;;;;;;;22.20;30.10;97115.84;4755410;30;1035;-78
2022/08/22 00:33:45;;;;;;;;;;;;;;;22.45;29.43;97111.16;4755203;30;989;-77
2022/08/22 00:36:15;;;;;;;;;;;;;;;22.18;30.10;97107.03;4755228;30;969;-78
2022/08/22 00:38:42;;;;;;;;;;;;;;;22.21;29.91;97113.81;4749684;30;949;-77
2022/08/22 00:41:21;;;;;;;;;;;;;;;22.13;30.01;97109.72;4773039;30;946;-77
2022/08/22 00:43:52;;;;;;;;;;;;;;;22.38;29.62;97108.59;4772992;30;956;-78
2022/08/22 00:46:18;;;;;;;;;;;;;;;22.33;29.57;97105.16;4773293;30;1971;-77
2022/08/22 00:48:53;;;;;;;;;;;;;;;22.43;29.65;97102.31;4772657;30;1033;-78
2022/08/22 00:51:31;;;;;;;;;;;;;;;22.26;29.81;97107.50;4772824;30;1165;-78
2022/08/22 00:53:56;;;;;;;;;;;;;;;22.29;29.72;97107.38;4772691;30;987;-77
2022/08/22 00:56:25;;;;;;;;;;;;;;;22.43;29.51;97105.94;4818111;29;969;-78
2022/08/22 00:58:53;;;;;;;;;;;;;;;22.48;29.29;97107.34;4859166;29;1058;-77
2022/08/22 01:01:21;;;;;;;;;;;;;;;22.42;29.49;97097.91;4882147;29;1088;-78
2022/08/22 01:03:46;;;;;;;;;;;;;;;22.62;29.27;97095.38;4844978;29;1114;-78
2022/08/22 01:06:12;;;;;;;;;;;;;;;22.50;29.39;97090.69;4867569;29;1994;-78
2022/08/22 01:08:43;;;;;;;;;;;;;;;22.21;29.68;97100.41;4919772;29;975;-77
2022/08/22 01:11:25;;;;;;;;;;;;;;;22.41;29.46;97085.00;4919587;29;981;-77
2022/08/22 01:13:51;;;;;;;;;;;;;;;22.45;29.69;97096.97;4881638;29;911;-78
2022/08/22 01:16:42;;;;;;;;;;;;;;;22.26;29.84;97094.13;4882226;29;933;-77
2022/08/22 01:19:10;;;;;;;;;;;;;;;22.42;29.62;97103.56;4863041;29;1010;-77
2022/08/22 01:21:48;;;;;;;;;;;;;;;22.48;29.39;97101.69;4882104;29;1489;-77
2022/08/22 01:24:28;;;;;;;;;;;;;;;22.44;29.30;97095.41;4881413;29;1042;-78
2022/08/22 01:27:08;;;;;;;;;;;;;;;22.22;29.72;97090.66;4880711;29;1919;-77
2022/08/22 01:29:52;;;;;;;;;;;;;;;22.24;29.82;97093.81;4881202;29;971;-78
2022/08/22 01:32:36;;;;;;;;;;;;;;;22.26;29.58;97096.97;4825965;29;1626;-78
2022/08/22 01:35:04;;;;;;;;;;;;;;;22.29;29.96;97101.69;4826381;29;953;-77
2022/08/22 01:37:42;;;;;;;;;;;;;;;22.23;29.83;97103.59;4825934;29;998;-78
2022/08/22 01:40:25;;;;;;;;;;;;;;;22.27;29.61;97104.19;4827448;29;1447;-78
2022/08/22 01:43:00;;;;;;;;;;;;;;;22.24;29.96;97105.16;4881112;29;1313;-78
2022/08/22 01:45:48;;;;;;;;;;;;;;;22.14;29.99;97099.94;4867596;29;1986;-77
2022/08/22 01:48:32;;;;;;;;;;;;;;;22.48;29.53;97096.00;4843948;29;1047;-77
2022/08/22 01:51:08;;;;;;;;;;;;;;;22.34;29.60;97084.06;4844223;29;1096;-77
2022/08/22 01:54:00;;;;;;;;;;;;;;;22.29;29.81;97092.41;4825541;29;1012;-77
2022/08/22 01:56:25;;;;;;;;;;;;;;;22.30;29.85;97091.94;4777378;30;1077;-77
2022/08/22 01:58:54;;;;;;;;;;;;;;;22.39;29.59;97081.88;4771756;30;945;-78
2022/08/22 02:01:39;;;;;;;;;;;;;;;22.20;29.73;97089.56;4789385;29;1025;-78
2022/08/22 02:04:08;;;;;;;;;;;;;;;22.41;29.74;97085.78;4786192;30;1035;-78
2022/08/22 02:06:39;;;;;;;;;;;;;;;22.16;29.95;97092.53;4789187;30;1912;-78
2022/08/22 02:09:10;;;;;;;;;;;;;;;22.00;30.04;97096.44;4789424;29;1002;-77
2022/08/22 02:11:36;;;;;;;;;;;;;;;22.24;29.69;97098.69;4789533;30;1010;-77
2022/08/22 02:14:17;;;;;;;;;;;;;;;22.24;29.84;97095.88;4789523;30;1045;-78
2022/08/22 02:16:44;;;;;;;;;;;;;;;22.42;29.49;97092.25;4789164;30;947;-78
2022/08/22 02:19:09;;;;;;;;;;;;;;;22.15;29.59;97093.81;4786126;30;1027;-78
2022/08/22 02:21:38;;;;;;;;;;;;;;;22.40;29.30;97089.09;4771233;30;940;-77
2022/08/22 02:24:04;;;;;;;;;;;;;;;22.51;29.06;97098.69;4781342;29;1199;-77
2022/08/22 02:26:46;;;;;;;;;;;;;;;22.28;29.60;97100.13;4804141;29;1945;-77
2022/08/22 02:29:11;;;;;;;;;;;;;;;22.10;29.88;97094.41;4825371;29;1074;-78
2022/08/22 02:31:41;;;;;;;;;;;;;;;22.41;29.43;97097.13;4828732;29;970;-78
2022/08/22 02:34:22;;;;;;;;;;;;;;;22.40;29.41;97097.59;4859714;29;1041;-78
2022/08/22 02:37:07;;;;;;;;;;;;;;;22.62;28.96;97095.38;4880232;29;1556;-78
2022/08/22 02:39:33;;;;;;;;;;;;;;;22.28;29.90;97088.78;4861416;29;1137;-78
2022/08/22 02:42:10;;;;;;;;;;;;;;;22.17;29.98;97093.31;4843143;29;1012;-78
2022/08/22 02:44:40;;;;;;;;;;;;;;;22.28;29.89;97094.47;4843141;29;1048;-77
2022/08/22 02:47:06;;;;;;;;;;;;;;;22.28;29.70;97100.13;4824757;29;1907;-78
2022/08/22 02:49:52;;;;;;;;;;;;;;;22.39;29.32;97093.19;4820860;29;1009;-78
2022/08/22 02:52:20;;;;;;;;;;;;;;;22.20;29.62;97093.19;4806329;29;956;-78
2022/08/22 02:54:53;;;;;;;;;;;;;;;22.15;29.73;97096.63;4807003;29;1062;-78
2022/08/22 02:57:27;;;;;;;;;;;;;;;21.96;29.86;97101.44;4806457;29;931;-78
2022/08/22 02:59:59;;;;;;;;;;;;;;;22.14;29.46;97095.06;4806815;29;959;-78
2022/08/22 03:02:28;;;;;;;;;;;;;;;22.20;29.62;97101.69;4806897;29;1070;-77
2022/08/22 03:04:55;;;;;;;;;;;;;;;22.14;29.79;97106.41;4806860;29;1514;-77
2022/08/22 03:07:20;;;;;;;;;;;;;;;22.05;29.84;97109.19;4811723;29;2461;-77
2022/08/22 03:10:04;;;;;;;;;;;;;;;22.44;29.48;97112.41;4824931;29;1076;-78
2022/08/22 03:12:48;;;;;;;;;;;;;;;22.06;29.83;97113.59;4824542;29;1004;-77
2022/08/22 03:15:33;;;;;;;;;;;;;;;22.19;29.94;97113.50;4825606;29;977;-78
2022/08/22 03:18:15;;;;;;;;;;;;;;;22.24;29.84;97113.66;4906701;29;978;-78
2022/08/22 03:20:45;;;;;;;;;;;;;;;22.24;29.57;97121.38;4879659;29;995;-77
2022/08/22 03:23:29;;;;;;;;;;;;;;;22.38;29.39;97120.72;4896492;29;1009;-78
2022/08/22 03:25:58;;;;;;;;;;;;;;;22.21;29.78;97117.41;4917463;29;1895;-77
2022/08/22 03:28:31;;;;;;;;;;;;;;;22.31;29.61;97124.66;4917450;29;954;-78
2022/08/22 03:30:56;;;;;;;;;;;;;;;22.29;29.52;97123.59;4902037;29;890;-78
2022/08/22 03:33:23;;;;;;;;;;;;;;;22.40;29.48;97134.44;4916970;29;1017;-78
2022/08/22 03:35:48;;;;;;;;;;;;;;;22.19;29.65;97136.16;4864436;29;1147;-78
2022/08/22 03:38:22;;;;;;;;;;;;;;;22.15;29.74;97139.13;4887872;29;993;-78
2022/08/22 03:41:16;;;;;;;;;;;;;;;22.06;29.95;97131.38;4860107;29;2352;-78
2022/08/22 03:43:59;;;;;;;;;;;;;;;22.56;28.80;97142.66;4860324;29;2020;-78
2022/08/22 03:46:25;;;;;;;;;;;;;;;22.21;29.78;97140.09;4860562;29;1981;-77
2022/08/22 03:48:50;;;;;;;;;;;;;;;22.27;29.54;97137.41;4861430;29;1014;-78
2022/08/22 03:51:34;;;;;;;;;;;;;;;22.30;29.38;97142.16;4852646;29;979;-77
2022/08/22 03:54:14;;;;;;;;;;;;;;;22.24;29.59;97139.16;4827722;29;956;-78
2022/08/22 03:57:08;;;;;;;;;;;;;;;22.14;29.53;97134.72;4864440;29;1225;-78
2022/08/22 03:59:33;;;;;;;;;;;;;;;22.20;29.57;97132.84;4827514;29;950;-78
2022/08/22 04:02:00;;;;;;;;;;;;;;;22.23;29.70;97137.59;4827406;29;2032;-78
2022/08/22 04:04:40;;;;;;;;;;;;;;;22.16;29.55;97137.88;4809284;29;2137;-77
2022/08/22 04:07:13;;;;;;;;;;;;;;;22.33;29.53;97136.34;4808738;29;1899;-78
2022/08/22 04:09:41;;;;;;;;;;;;;;;22.23;29.69;97140.41;4800643;29;1811;-79
2022/08/22 04:12:25;;;;;;;;;;;;;;;22.34;29.48;97142.78;4792038;29;988;-77
2022/08/22 04:15:00;;;;;;;;;;;;;;;22.36;29.64;97146.72;4809180;29;1109;-78
2022/08/22 04:17:40;;;;;;;;;;;;;;;22.14;29.98;97151.72;4812118;29;1636;-77
2022/08/22 04:20:08;;;;;;;;;;;;;;;22.42;29.51;97148.94;4845514;29;1018;-78
2022/08/22 04:22:53;;;;;;;;;;;;;;;22.08;30.15;97147.91;4864218;29;902;-78
2022/08/22 04:25:22;;;;;;;;;;;;;;;22.08;30.27;97147.91;4864152;29;1083;-77
2022/08/22 04:27:54;;;;;;;;;;;;;;;22.06;30.18;97144.75;4874566;29;915;-77
2022/08/22 04:30:25;;;;;;;;;;;;;;;22.13;30.17;97143.72;4882430;29;917;-77
2022/08/22 04:33:03;;;;;;;;;;;;;;;22.19;30.06;97151.13;4918928;29;1507;-77
2022/08/22 04:35:30;;;;;;;;;;;;;;;22.18;30.26;97146.72;4904291;29;1017;-77
2022/08/22 04:37:57;;;;;;;;;;;;;;;22.23;29.96;97148.94;4920132;29;945;-78
2022/08/22 04:40:23;;;;;;;;;;;;;;;22.47;30.02;97151.13;4934633;29;933;-78
2022/08/22 04:43:01;;;;;;;;;;;;;;;22.38;29.99;97156.78;4958142;29;964;-77
2022/08/22 04:45:47;;;;;;;;;;;;;;;22.27;30.35;97143.88;4958139;29;1922;-78
2022/08/22 04:48:32;;;;;;;;;;;;;;;22.12;30.46;97148.56;4860802;29;1451;-78
2022/08/22 04:51:24;;;;;;;;;;;;;;;22.29;30.33;97157.59;4808704;29;939;-78
2022/08/22 04:54:19;;;;;;;;;;;;;;;22.38;29.91;97156.78;4773072;30;1064;-78
2022/08/22 04:56:44;;;;;;;;;;;;;;;22.44;29.97;97160.59;4718776;30;1541;-78
2022/08/22 04:59:10;;;;;;;;;;;;;;;22.33;30.08;97159.00;4702637;30;1562;-78
2022/08/22 05:01:41;;;;;;;;;;;;;;;22.20;30.57;97155.50;4701540;30;1065;-77
2022/08/22 05:04:12;;;;;;;;;;;;;;;22.29;30.41;97168.91;4695741;30;1774;-78
2022/08/22 05:06:39;;;;;;;;;;;;;;;22.35;30.38;97176.31;4684932;30;1997;-78
2022/08/22 05:09:06;;;;;;;;;;;;;;;22.22;30.52;97174.88;4702210;30;977;-78
2022/08/22 05:11:32;;;;;;;;;;;;;;;22.32;30.43;97174.41;4721736;30;1299;-78
2022/08/22 05:14:00;;;;;;;;;;;;;;;22.01;30.81;97182.19;4737058;30;1029;-78
2022/08/22 05:16:31;;;;;;;;;;;;;;;22.22;30.58;97177.72;4744658;30;1898;-78
2022/08/22 05:19:01;;;;;;;;;;;;;;;22.26;30.54;97176.31;4725848;30;1038;-78
2022/08/22 05:21:29;;;;;;;;;;;;;;;22.40;30.43;97180.59;4741713;30;1028;-77
2022/08/22 05:24:01;;;;;;;;;;;;;;;21.99;30.99;97179.06;4754067;30;1280;-77
2022/08/22 05:26:26;;;;;;;;;;;;;;;22.20;30.54;97183.06;4768665;30;1912;-78
2022/08/22 05:28:53;;;;;;;;;;;;;;;22.09;30.70;97186.31;4772296;30;1039;-78
2022/08/22 05:31:23;;;;;;;;;;;;;;;22.10;31.12;97182.22;4796149;29;1014;-77
2022/08/22 05:33:53;;;;;;;;;;;;;;;22.28;30.76;97190.81;4880006;29;909;-78
2022/08/22 05:36:21;;;;;;;;;;;;;;;22.32;30.72;97188.59;4901600;29;1032;-77
2022/08/22 05:38:49;;;;;;;;;;;;;;;22.49;30.20;97191.16;4881286;29;958;-78
2022/08/22 05:41:19;;;;;;;;;;;;;;;22.39;30.56;97189.56;4844365;29;972;-78
2022/08/22 05:43:45;;;;;;;;;;;;;;;22.25;30.65;97197.41;4829035;29;968;-78
2022/08/22 05:46:39;;;;;;;;;;;;;;;22.04;31.07;97193.38;4844539;29;1907;-78
2022/08/22 05:49:04;;;;;;;;;;;;;;;22.35;30.58;97204.66;4848524;29;1544;-77
2022/08/22 05:51:41;;;;;;;;;;;;;;;22.47;30.49;97207.84;4862491;29;1047;-78
2022/08/22 05:54:13;;;;;;;;;;;;;;;22.59;30.17;97201.25;4843444;29;1497;-78
2022/08/22 05:56:44;;;;;;;;;;;;;;;22.40;30.73;97213.81;4828324;29;1537;-78
2022/08/22 05:59:18;;;;;;;;;;;;;;;22.29;30.80;97209.38;4829343;29;948;-78
2022/08/22 06:01:53;;;;;;;;;;;;;;;22.03;31.17;97213.69;4807641;29;974;-78
2022/08/22 06:04:24;;;;;;;;;;;;;;;22.31;30.88;97214.56;4822795;29;1023;-78
2022/08/22 06:06:56;;;;;;;;;;;;;;;22.25;30.85;97214.41;4807441;29;1961;-78
2022/08/22 06:09:25;;;;;;;;;;;;;;;22.60;30.08;97217.78;4854788;29;1517;-77
2022/08/22 06:11:57;;;;;;;;;;;;;;;22.27;31.00;97222.44;4837143;29;980;-78
2022/08/22 06:14:37;;;;;;;;;;;;;;;22.50;30.60;97219.03;4847153;29;913;-78
2022/08/22 06:17:09;;;;;;;;;;;;;;;22.16;30.94;97227.75;4806873;29;1471;-78
2022/08/22 06:19:37;;;;;;;;;;;;;;;22.26;31.12;97215.97;4806669;29;1768;-78
2022/08/22 06:22:02;;;;;;;;;;;;;;;22.50;30.61;97221.06;4822065;29;1039;-77
2022/08/22 06:24:28;;;;;;;;;;;;;;;22.27;30.89;97219.59;4820906;29;1174;-78
2022/08/22 06:26:55;;;;;;;;;;;;;;;22.59;30.35;97221.09;4807047;29;1911;-77
2022/08/22 06:29:41;;;;;;;;;;;;;;;22.49;30.52;97223.13;4807053;29;984;-77
2022/08/22 06:32:18;;;;;;;;;;;;;;;22.07;31.17;97223.63;4770195;30;1717;-78
2022/08/22 06:34:44;;;;;;;;;;;;;;;22.32;30.73;97231.09;4753127;30;1716;-77
2022/08/22 06:37:11;;;;;;;;;;;;;;;22.46;30.87;97224.06;4753178;30;1017;-78
2022/08/22 06:39:40;;;;;;;;;;;;;;;22.29;31.22;97234.09;4753334;30;913;-77
2022/08/22 06:42:07;;;;;;;;;;;;;;;22.49;30.74;97228.78;4759515;30;909;-78
2022/08/22 06:44:37;;;;;;;;;;;;;;;22.48;30.74;97232.09;4788825;30;1117;-78
2022/08/22 06:47:04;;;;;;;;;;;;;;;22.38;31.08;97228.44;4782327;29;1919;-77
2022/08/22 06:49:30;;;;;;;;;;;;;;;22.45;31.11;97227.38;4770657;30;1021;-78
2022/08/22 06:51:56;;;;;;;;;;;;;;;22.51;30.79;97234.78;4759827;30;1787;-78
2022/08/22 06:54:22;;;;;;;;;;;;;;;22.34;30.80;97239.94;4806963;29;1833;-78
2022/08/22 06:56:49;;;;;;;;;;;;;;;22.58;30.49;97236.50;4840401;29;1748;-78
2022/08/22 06:59:18;;;;;;;;;;;;;;;22.32;31.08;97245.28;4799449;29;1956;-77
2022/08/22 07:01:46;;;;;;;;;;;;;;;22.34;31.01;97244.81;4793586;29;1659;-78
2022/08/22 07:04:12;;;;;;;;;;;;;;;22.65;30.26;97239.06;4792999;29;1686;-78
2022/08/22 07:06:40;;;;;;;;;;;;;;;22.59;30.43;97243.78;4812540;29;1935;-78
2022/08/22 07:09:05;;;;;;;;;;;;;;;22.66;30.53;97243.47;4801476;29;924;-78
2022/08/22 07:11:35;;;;;;;;;;;;;;;22.47;30.63;97236.19;4788229;30;1810;-77
2022/08/22 07:14:03;;;;;;;;;;;;;;;22.45;30.80;97250.03;4820384;29;956;-77
2022/08/22 07:16:33;;;;;;;;;;;;;;;22.30;31.02;97249.84;4840560;29;989;-78
2022/08/22 07:18:58;;;;;;;;;;;;;;;22.53;30.74;97252.09;4842794;29;922;-78
2022/08/22 07:21:31;;;;;;;;;;;;;;;22.65;30.27;97253.22;4847024;29;1006;-77
2022/08/22 07:23:57;;;;;;;;;;;;;;;22.70;30.40;97249.00;4860895;29;1771;-77
2022/08/22 07:26:31;;;;;;;;;;;;;;;22.72;30.27;97250.09;4863934;29;1903;-77
2022/08/22 07:29:02;;;;;;;;;;;;;;;22.47;30.77;97244.69;4883323;29;881;-77
2022/08/22 07:31:27;;;;;;;;;;;;;;;22.15;31.06;97243.97;4936481;29;1074;-78
2022/08/22 07:33:59;;;;;;;;;;;;;;;22.38;30.82;97239.78;4936506;29;903;-78
2022/08/22 07:36:34;;;;;;;;;;;;;;;22.48;30.75;97237.75;4920705;29;1036;-78
2022/08/22 07:39:18;;;;;;;;;;;;;;;22.36;30.80;97231.75;4920657;29;884;-78
2022/08/22 07:42:02;;;;;;;;;;;;;;;22.58;30.73;97247.84;4950861;28;1610;-78
2022/08/22 07:44:31;;;;;;;;;;;;;;;22.39;30.90;97243.41;4995464;28;1523;-78
2022/08/22 07:47:05;;;;;;;;;;;;;;;22.75;30.17;97234.97;4968976;28;1907;-77
2022/08/22 07:49:31;;;;;;;;;;;;;;;22.52;30.66;97244.06;4959524;28;926;-78
2022/08/22 07:52:01;;;;;;;;;;;;;;;22.55;30.46;97234.63;4968239;28;1572;-78
2022/08/22 07:54:40;;;;;;;;;;;;;;;22.47;30.62;97225.63;4978510;28;1676;-78
2022/08/22 07:57:29;;;;;;;;;;;;;;;22.47;30.43;97233.34;4977317;28;1696;-78
2022/08/22 07:59:55;;;;;;;;;;;;;;;22.54;30.13;97230.22;4900554;29;1637;-78
2022/08/22 08:02:20;;;;;;;;;;;;;;;22.57;30.37;97230.06;4888877;29;1650;-77
2022/08/22 08:04:47;;;;;;;;;;;;;;;22.56;30.38;97227.69;4914597;29;1565;-78
2022/08/22 08:07:13;;;;;;;;;;;;;;;22.26;31.01;97230.16;4887321;29;1978;-78
2022/08/22 08:09:58;;;;;;;;;;;;;;;22.49;30.56;97228.00;4899578;29;1752;-77
2022/08/22 08:12:34;;;;;;;;;;;;;;;22.77;30.23;97220.31;4904923;29;1705;-77
2022/08/22 08:14:59;;;;;;;;;;;;;;;22.51;30.41;97225.47;4901662;29;869;-77
2022/08/22 08:17:26;;;;;;;;;;;;;;;22.58;30.64;97219.50;4908196;29;1652;-77
2022/08/22 08:19:51;;;;;;;;;;;;;;;22.53;30.40;97217.28;4900683;29;1930;-77
2022/08/22 08:22:18;;;;;;;;;;;;;;;22.59;30.22;97227.56;4895779;29;1520;-78
2022/08/22 08:24:44;;;;;;;;;;;;;;;22.60;30.55;97225.50;4841492;29;1560;-77
2022/08/22 08:30:03;;;;;;;;;;;;;;;22.65;30.28;97230.56;4840733;29;1666;-77
2022/08/22 08:32:30;;;;;;;;;;;;;;;22.79;29.96;97229.91;4842096;29;1665;-77
2022/08/22 08:34:56;;;;;;;;;;;;;;;22.64;30.49;97228.97;4842169;29;2001;-76
2022/08/22 08:37:26;;;;;;;;;;;;;;;22.29;31.13;97231.28;4909006;29;1644;-77
2022/08/22 08:39:52;;;;;;;;;;;;;;;22.42;30.65;97228.28;4923553;29;921;-78
2022/08/22 08:42:18;;;;;;;;;;;;;;;22.39;30.98;97234.91;4919645;29;1866;-78
2022/08/22 08:44:49;;;;;;;;;;;;;;;22.39;30.96;97226.41;4938391;29;1649;-78
2022/08/22 08:47:29;;;;;;;;;;;;;;;22.49;30.55;97233.69;4938369;29;1973;-77
2022/08/22 08:49:55;;;;;;;;;;;;;;;22.71;30.26;97228.66;4923428;29;930;-78
2022/08/22 08:52:30;;;;;;;;;;;;;;;22.57;30.84;97223.59;4937646;29;1575;-78
2022/08/22 08:55:14;;;;;;;;;;;;;;;22.71;30.44;97223.00;4903265;29;1808;-78
2022/08/22 08:57:39;;;;;;;;;;;;;;;22.44;30.69;97220.13;4916473;29;2048;-78
2022/08/22 09:00:11;;;;;;;;;;;;;;;22.43;30.56;97219.31;4917068;29;1681;-78
2022/08/22 09:02:45;;;;;;;;;;;;;;;22.49;30.78;97228.00;4911332;29;1686;-77
2022/08/22 09:05:29;;;;;;;;;;;;;;;22.50;30.40;97216.19;4928030;29;1691;-78
2022/08/22 09:07:55;;;;;;;;;;;;;;;22.60;30.37;97223.44;4915579;28;1969;-78
2022/08/22 09:10:27;;;;;;;;;;;;;;;22.73;30.16;97214.78;4955134;29;1635;-77
2022/08/22 09:13:16;;;;;;;;;;;;;;;22.75;30.08;97217.16;4956470;29;1641;-77
2022/08/22 09:15:41;;;;;;;;;;;;;;;22.50;30.35;97221.88;4918320;29;1637;-77
2022/08/22 09:18:09;;;;;;;;;;;;;;;22.69;30.13;97214.19;4919227;29;1506;-77
2022/08/22 09:20:45;;;;;;;;;;;;;;;22.74;30.13;97222.06;4919303;29;1210;-78
2022/08/22 09:23:16;;;;;;;;;;;;;;;22.71;30.43;97214.47;4919331;29;1102;-78
2022/08/22 09:25:44;;;;;;;;;;;;;;;22.54;30.43;97196.19;4918991;29;1984;-77
2022/08/22 09:28:11;;;;;;;;;;;;;;;22.68;30.11;97212.56;4890992;29;1929;-78
2022/08/22 09:30:49;;;;;;;;;;;;;;;22.54;30.44;97218.88;4884185;29;1604;-77
2022/08/22 09:33:15;;;;;;;;;;;;;;;22.73;30.43;97214.78;4880802;29;1565;-77
2022/08/22 09:35:47;;;;;;;;;;;;;;;22.64;30.26;97206.28;4861709;29;1596;-77
2022/08/22 09:38:27;;;;;;;;;;;;;;;22.82;30.28;97205.50;4824776;29;1534;-77
2022/08/22 09:41:16;;;;;;;;;;;;;;;22.70;30.39;97197.94;4788408;29;1611;-78
2022/08/22 09:43:48;;;;;;;;;;;;;;;22.68;30.15;97189.09;4778127;30;1805;-78
2022/08/22 09:46:19;;;;;;;;;;;;;;;22.65;30.25;97196.53;4783062;30;1988;-77
2022/08/22 09:48:56;;;;;;;;;;;;;;;22.70;30.30;97187.38;4785868;30;1704;-78
2022/08/22 09:51:40;;;;;;;;;;;;;;;22.51;30.48;97192.25;4771052;30;1612;-77
2022/08/22 09:54:11;;;;;;;;;;;;;;;22.66;30.66;97192.41;4753875;30;921;-77
2022/08/22 09:56:55;;;;;;;;;;;;;;;22.62;30.64;97191.78;4770668;30;1544;-77
2022/08/22 09:59:39;;;;;;;;;;;;;;;22.51;30.76;97191.47;4770754;30;1732;-77
2022/08/22 10:02:24;;;;;;;;;;;;;;;22.71;30.38;97183.28;4758947;30;1509;-77
2022/08/22 10:04:56;;;;;;;;;;;;;;;22.59;30.34;97184.25;4766022;30;1668;-76
2022/08/22 10:07:33;;;;;;;;;;;;;;;22.45;30.89;97176.34;4769853;30;1997;-77
2022/08/22 10:10:02;;;;;;;;;;;;;;;22.83;30.43;97173.03;4742222;30;1620;-77
2022/08/22 10:12:32;;;;;;;;;;;;;;;22.50;30.59;97172.88;4779371;29;1723;-77
2022/08/22 10:14:57;;;;;;;;;;;;;;;22.62;30.61;97174.78;4735119;30;2095;-78
2022/08/22 10:17:26;;;;;;;;;;;;;;;22.78;30.23;97185.81;4728593;30;1888;-78
2022/08/22 10:19:59;;;;;;;;;;;;;;;22.71;30.52;97191.78;4748220;29;1664;-77
2022/08/22 10:22:31;;;;;;;;;;;;;;;22.77;30.52;97187.06;4825092;29;1492;-77
2022/08/22 10:24:56;;;;;;;;;;;;;;;22.64;30.70;97183.63;4825298;29;1130;-77
2022/08/22 10:27:44;;;;;;;;;;;;;;;22.62;30.69;97191.78;4839131;29;1880;-77
2022/08/22 10:30:16;;;;;;;;;;;;;;;22.65;30.72;97190.84;4843479;29;1024;-78
2022/08/22 10:33:00;;;;;;;;;;;;;;;22.68;30.60;97189.09;4841637;29;1564;-77
2022/08/22 10:35:26;;;;;;;;;;;;;;;22.54;30.84;97188.47;4857141;29;1410;-78
2022/08/22 10:37:53;;;;;;;;;;;;;;;22.77;30.59;97187.06;4844036;29;1507;-77
2022/08/22 10:40:20;;;;;;;;;;;;;;;22.45;31.08;97176.34;4875857;29;1384;-78
2022/08/22 10:43:11;;;;;;;;;;;;;;;22.69;30.98;97180.16;4881319;29;933;-78
2022/08/22 10:45:41;;;;;;;;;;;;;;;22.71;30.43;97188.97;4861509;29;1061;-77
2022/08/22 10:48:18;;;;;;;;;;;;;;;22.74;30.79;97185.19;4861468;29;1315;-78
2022/08/22 10:50:43;;;;;;;;;;;;;;;22.63;30.69;97179.97;4861191;29;1533;-77
2022/08/22 10:55:54;;;;;;;;;;;;;;;22.56;30.65;97182.34;4861936;29;970;-77
2022/08/22 10:58:22;;;;;;;;;;;;;;;22.68;30.76;97183.44;4842313;29;977;-78
2022/08/22 11:00:57;;;;;;;;;;;;;;;22.90;30.57;97183.31;4827855;29;1019;-78
2022/08/22 11:03:25;;;;;;;;;;;;;;;22.90;30.47;97183.31;4843042;29;1030;-78
2022/08/22 11:05:52;;;;;;;;;;;;;;;22.76;30.58;97179.81;4843020;29;1915;-78
2022/08/22 11:08:36;;;;;;;;;;;;;;;22.82;30.73;97177.94;4827126;29;1533;-77
2022/08/22 11:11:07;;;;;;;;;;;;;;;22.77;30.50;97181.38;4843052;29;1047;-77
2022/08/22 11:13:33;;;;;;;;;;;;;;;22.75;30.76;97175.41;4824693;29;923;-78
2022/08/22 11:16:18;;;;;;;;;;;;;;;22.91;30.66;97162.22;4825214;29;1024;-78
2022/08/22 11:18:57;;;;;;;;;;;;;;;22.86;30.60;97161.53;4776490;30;999;-78
2022/08/22 11:21:26;;;;;;;;;;;;;;;22.70;30.85;97169.59;4749385;30;1465;-77
2022/08/22 11:23:57;;;;;;;;;;;;;;;22.47;31.47;97168.16;4752648;30;1089;-78
2022/08/22 11:26:42;;;;;;;;;;;;;;;22.57;31.15;97169.72;4752723;30;1904;-77
2022/08/22 11:29:13;;;;;;;;;;;;;;;22.81;30.57;97159.34;4745288;30;956;-78
2022/08/22 11:31:42;;;;;;;;;;;;;;;22.76;30.84;97170.53;4770406;30;965;-78
2022/08/22 11:34:09;;;;;;;;;;;;;;;22.77;31.04;97170.03;4770813;30;959;-78
2022/08/22 11:36:46;;;;;;;;;;;;;;;22.96;30.68;97165.19;4769729;30;1508;-78
2022/08/22 11:39:14;;;;;;;;;;;;;;;22.79;30.85;97167.50;4752741;30;1405;-78
2022/08/22 11:41:39;;;;;;;;;;;;;;;22.60;31.16;97165.97;4752676;30;1028;-77
2022/08/22 11:44:07;;;;;;;;;;;;;;;22.68;30.99;97172.09;4763305;30;1059;-78
2022/08/22 11:46:34;;;;;;;;;;;;;;;22.83;30.93;97156.81;4788698;30;1976;-78
2022/08/22 11:49:09;;;;;;;;;;;;;;;22.57;31.19;97161.22;4787836;30;1055;-78
2022/08/22 11:51:37;;;;;;;;;;;;;;;22.75;31.04;97161.25;4793731;29;974;-78
2022/08/22 11:54:08;;;;;;;;;;;;;;;22.72;30.90;97156.50;4822694;29;1454;-78
2022/08/22 11:56:38;;;;;;;;;;;;;;;22.73;31.21;97163.75;4864243;29;1014;-77
2022/08/22 11:59:06;;;;;;;;;;;;;;;22.73;31.11;97157.28;4860686;29;901;-77
2022/08/22 12:01:31;;;;;;;;;;;;;;;22.77;31.14;97155.09;4860829;29;1011;-78
2022/08/22 12:04:06;;;;;;;;;;;;;;;22.57;31.51;97161.22;4860888;29;919;-77
2022/08/22 12:06:50;;;;;;;;;;;;;;;22.80;30.95;97154.16;4845402;29;1967;-78
2022/08/22 12:09:21;;;;;;;;;;;;;;;22.72;31.04;97150.81;4852933;29;1502;-77
2022/08/22 12:12:05;;;;;;;;;;;;;;;23.00;30.42;97159.34;4827654;29;933;-77
2022/08/22 12:14:43;;;;;;;;;;;;;;;22.68;31.26;97155.88;4827777;29;950;-77
2022/08/22 12:17:20;;;;;;;;;;;;;;;22.77;30.78;97147.34;4791255;30;982;-77
2022/08/22 12:19:48;;;;;;;;;;;;;;;22.88;30.94;97130.66;4777133;30;966;-76
2022/08/22 12:22:34;;;;;;;;;;;;;;;22.65;31.26;97136.97;4791776;30;969;-78
2022/08/22 12:25:07;;;;;;;;;;;;;;;22.73;31.13;97135.38;4790445;30;1605;-78
2022/08/22 12:27:39;;;;;;;;;;;;;;;22.65;31.44;97144.69;4798647;29;1907;-78
2022/08/22 12:30:13;;;;;;;;;;;;;;;22.82;30.96;97137.44;4814665;29;1535;-79
2022/08/22 12:32:57;;;;;;;;;;;;;;;22.63;31.34;97148.00;4836164;29;1498;-78
2022/08/22 12:35:22;;;;;;;;;;;;;;;22.70;31.00;97144.84;4845874;29;926;-77
2022/08/22 12:37:54;;;;;;;;;;;;;;;22.69;31.25;97140.44;4845850;29;1110;-78
2022/08/22 12:40:25;;;;;;;;;;;;;;;22.81;30.94;97136.66;4845721;29;950;-77
2022/08/22 12:43:09;;;;;;;;;;;;;;;22.83;31.00;97128.44;4845357;29;1049;-77
2022/08/22 12:45:34;;;;;;;;;;;;;;;22.93;30.68;97145.50;4845829;29;1565;-78
2022/08/22 12:48:18;;;;;;;;;;;;;;;22.93;30.75;97131.31;4855910;29;1981;-78
2022/08/22 12:51:02;;;;;;;;;;;;;;;22.84;30.87;97130.00;4844639;29;1403;-78
2022/08/22 12:53:28;;;;;;;;;;;;;;;22.75;30.70;97127.22;4826686;29;979;-77
2022/08/22 12:56:15;;;;;;;;;;;;;;;22.81;30.96;97145.16;4826742;29;945;-78
2022/08/22 12:58:59;;;;;;;;;;;;;;;22.81;30.75;97135.88;4826692;29;1105;-78
2022/08/22 13:01:25;;;;;;;;;;;;;;;22.86;30.97;97127.50;4834307;29;972;-78
2022/08/22 13:03:55;;;;;;;;;;;;;;;22.79;30.64;97127.03;4853199;29;1475;-78
2022/08/22 13:06:32;;;;;;;;;;;;;;;22.92;30.59;97124.06;4826718;29;1907;-78
2022/08/22 13:08:58;;;;;;;;;;;;;;;22.84;30.79;97130.00;4808311;29;958;-78
2022/08/22 13:11:23;;;;;;;;;;;;;;;22.86;30.55;97127.50;4772484;30;1008;-78
2022/08/22 13:13:56;;;;;;;;;;;;;;;22.85;30.80;97120.25;4754846;30;987;-78
2022/08/22 13:16:22;;;;;;;;;;;;;;;22.91;30.71;97122.50;4754557;30;961;-78
2022/08/22 13:18:47;;;;;;;;;;;;;;;22.71;30.80;97120.91;4761945;30;1590;-78
2022/08/22 13:21:13;;;;;;;;;;;;;;;22.83;30.79;97122.78;4771979;30;1147;-77
2022/08/22 13:23:42;;;;;;;;;;;;;;;22.90;30.64;97120.91;4771093;30;1145;-77
2022/08/22 13:26:10;;;;;;;;;;;;;;;22.82;30.93;97124.03;4772506;30;1907;-78
2022/08/22 13:28:43;;;;;;;;;;;;;;;22.69;31.09;97123.44;4774575;29;997;-77
2022/08/22 13:31:09;;;;;;;;;;;;;;;22.59;31.02;97134.00;4811162;29;1013;-78
2022/08/22 13:33:36;;;;;;;;;;;;;;;22.74;30.90;97125.63;4819953;29;1459;-78